Time;durP1;ratioP1;P1;durP2;ratioP2;P2;SDS_P1;SDS_P2;PMS_P1;PMS_P2;Temp;Humidity;BMP_temperature;BMP_pressure;BME280_temperature;BME280_humidity;BME280_pressure;Samples;Min_cycle;Max_cycle;Signal;HPM_P1;HPM_P2
2022/01/31 00:01:02;;;;;;;120.82;99.72;;;5.00;96.10;;;;;;5054610;28;19960;-77
2022/01/31 00:03:33;;;;;;;116.60;101.10;;;5.00;96.00;;;;;;5053896;28;20054;-78
2022/01/31 00:06:01;;;;;;;116.13;102.30;;;4.90;96.10;;;;;;5035721;28;20042;-78
2022/01/31 00:08:29;;;;;;;118.15;102.20;;;5.00;96.20;;;;;;5035854;28;20054;-78
2022/01/31 00:10:57;;;;;;;120.40;102.72;;;5.00;96.20;;;;;;5035690;28;20073;-77
2022/01/31 00:13:32;;;;;;;125.32;104.13;;;5.00;96.30;;;;;;5035984;28;20053;-78
2022/01/31 00:15:59;;;;;;;121.28;103.88;;;5.00;96.30;;;;;;5035865;28;20050;-78
2022/01/31 00:18:26;;;;;;;120.97;103.82;;;5.00;96.30;;;;;;5035911;28;20605;-77
2022/01/31 00:20:53;;;;;;;119.72;103.32;;;5.00;96.30;;;;;;5035944;28;20137;-78
2022/01/31 00:23:20;;;;;;;116.10;102.72;;;5.00;96.30;;;;;;5035857;28;20059;-77
2022/01/31 00:25:49;;;;;;;117.68;102.57;;;5.00;96.40;;;;;;5035723;28;20497;-78
2022/01/31 00:28:16;;;;;;;117.15;103.13;;;5.00;96.40;;;;;;5035476;28;20041;-77
2022/01/31 00:30:43;;;;;;;128.60;103.47;;;4.90;96.40;;;;;;5019077;28;20073;-78
2022/01/31 00:33:10;;;;;;;119.30;102.85;;;4.90;96.50;;;;;;5019320;28;20077;-78
2022/01/31 00:35:37;;;;;;;125.05;105.00;;;4.90;96.50;;;;;;5019398;28;20046;-78
2022/01/31 00:38:04;;;;;;;122.22;103.03;;;4.90;96.50;;;;;;5035272;28;20096;-77
2022/01/31 00:40:32;;;;;;;116.32;102.50;;;4.90;96.50;;;;;;5035334;28;20515;-78
2022/01/31 00:43:00;;;;;;;120.68;103.40;;;5.00;96.60;;;;;;5035533;28;20057;-77
2022/01/31 00:45:30;;;;;;;117.88;102.45;;;4.90;96.60;;;;;;5018731;28;20053;-78
2022/01/31 00:48:02;;;;;;;121.32;102.82;;;5.00;96.60;;;;;;5018649;28;20053;-78
2022/01/31 00:50:39;;;;;;;117.05;104.30;;;5.00;96.60;;;;;;5018626;28;20041;-78
2022/01/31 00:53:06;;;;;;;126.78;106.28;;;5.00;96.60;;;;;;5035261;28;20160;-78
2022/01/31 00:55:33;;;;;;;118.82;104.00;;;5.00;96.60;;;;;;5053206;28;20131;-77
2022/01/31 00:58:01;;;;;;;116.43;103.65;;;5.00;96.60;;;;;;5035477;28;20049;-78
2022/01/31 01:00:29;;;;;;;120.13;103.35;;;5.00;96.60;;;;;;5035067;28;20847;-78
2022/01/31 01:02:55;;;;;;;116.47;103.78;;;5.00;96.70;;;;;;5018787;28;20081;-78
2022/01/31 01:05:24;;;;;;;120.10;105.30;;;5.00;96.60;;;;;;5018057;28;20417;-77
2022/01/31 01:07:52;;;;;;;119.82;104.22;;;5.00;96.70;;;;;;5019156;28;20526;-77
2022/01/31 01:10:20;;;;;;;119.28;106.15;;;5.00;96.70;;;;;;5038513;28;20126;-77
2022/01/31 01:12:48;;;;;;;121.25;106.20;;;5.00;96.70;;;;;;5038439;28;20045;-78
2022/01/31 01:15:17;;;;;;;119.93;104.68;;;5.00;96.80;;;;;;5056851;28;20124;-77
2022/01/31 01:17:45;;;;;;;119.30;106.32;;;5.00;96.80;;;;;;5021525;28;20053;-78
2022/01/31 01:20:15;;;;;;;119.93;106.72;;;5.10;97.00;;;;;;5038355;28;20065;-77
2022/01/31 01:22:42;;;;;;;119.38;105.50;;;5.00;96.80;;;;;;5038749;28;20136;-78
2022/01/31 01:25:10;;;;;;;121.63;108.25;;;5.10;96.90;;;;;;5038078;28;20049;-78
2022/01/31 01:27:37;;;;;;;120.28;107.22;;;5.10;97.00;;;;;;5037976;28;20483;-78
2022/01/31 01:30:06;;;;;;;;;;;5.00;96.90;;;;;;5055153;28;20135;-78
2022/01/31 01:32:45;;;;;;;118.45;105.53;;;5.10;97.10;;;;;;5038420;28;19921;-78
2022/01/31 01:35:13;;;;;;;121.88;108.50;;;5.10;97.10;;;;;;5055001;28;20123;-78
2022/01/31 01:37:40;;;;;;;120.80;107.47;;;5.10;97.20;;;;;;5037967;28;20049;-78
2022/01/31 01:40:08;;;;;;;122.38;109.05;;;5.10;97.40;;;;;;5037156;28;20551;-78
2022/01/31 01:42:35;;;;;;;125.05;111.03;;;5.10;97.40;;;;;;5037284;28;20073;-78
2022/01/31 01:45:04;;;;;;;124.97;111.35;;;5.00;97.40;;;;;;5020879;28;20060;-78
2022/01/31 01:47:39;;;;;;;122.10;109.18;;;5.00;97.50;;;;;;5020541;28;20062;-78
2022/01/31 01:50:06;;;;;;;122.22;109.18;;;5.00;97.50;;;;;;5020915;28;20052;-78
2022/01/31 01:52:33;;;;;;;;;;;5.00;97.60;;;;;;5025283;28;20030;-79
2022/01/31 01:55:01;;;;;;;120.75;107.35;;;4.90;97.60;;;;;;5038389;28;19929;-78
2022/01/31 01:57:30;;;;;;;121.35;108.28;;;4.90;97.70;;;;;;5037514;28;20054;-78
2022/01/31 01:59:58;;;;;;;119.55;106.65;;;4.90;97.70;;;;;;5021364;28;20042;-78
2022/01/31 02:02:46;;;;;;;122.40;109.18;;;4.90;97.70;;;;;;5055533;28;20097;-78
2022/01/31 02:05:17;;;;;;;120.43;107.60;;;4.80;97.70;;;;;;5021266;28;20503;-78
2022/01/31 02:07:45;;;;;;;120.93;108.10;;;4.80;97.70;;;;;;5021129;28;20057;-77
2022/01/31 02:10:16;;;;;;;120.80;108.10;;;4.80;97.80;;;;;;5037448;28;20050;-78
2022/01/31 02:13:19;;;;;;;121.43;108.82;;;4.80;97.90;;;;;;5020211;28;20053;-78
2022/01/31 02:16:18;;;;;;;122.35;109.35;;;4.80;97.90;;;;;;5004374;28;20064;-78
2022/01/31 02:18:53;;;;;;;122.20;109.30;;;4.70;97.90;;;;;;5037340;28;20045;-78
2022/01/31 02:21:37;;;;;;;121.43;108.32;;;4.70;98.10;;;;;;5053826;28;20534;-78
2022/01/31 02:24:24;;;;;;;123.25;109.90;;;4.70;98.20;;;;;;5037136;28;20056;-77
2022/01/31 02:27:15;;;;;;;122.63;109.57;;;4.70;98.20;;;;;;5008420;28;20053;-77
2022/01/31 02:29:42;;;;;;;122.27;108.90;;;4.70;98.40;;;;;;5037265;28;20084;-78
2022/01/31 02:32:09;;;;;;;121.70;108.65;;;4.70;98.40;;;;;;5037144;28;20258;-77
2022/01/31 02:34:36;;;;;;;120.80;107.90;;;4.60;98.50;;;;;;5020671;28;20052;-78
2022/01/31 02:37:06;;;;;;;121.60;108.70;;;4.60;98.50;;;;;;5037233;28;20053;-78
2022/01/31 02:39:33;;;;;;;121.10;108.57;;;4.60;98.60;;;;;;5037205;28;20463;-78
2022/01/31 02:42:00;;;;;;;117.55;105.00;;;4.60;98.70;;;;;;5037155;28;20057;-77
2022/01/31 02:44:28;;;;;;;117.63;104.97;;;4.70;98.60;;;;;;5020585;28;20136;-77
2022/01/31 02:47:15;;;;;;;118.13;105.53;;;4.70;98.60;;;;;;5036884;28;20049;-77
2022/01/31 02:49:48;;;;;;;117.82;105.55;;;4.70;98.70;;;;;;5036985;28;20049;-77
2022/01/31 02:52:18;;;;;;;115.28;103.13;;;4.70;98.70;;;;;;5020340;28;20149;-77
2022/01/31 02:54:45;;;;;;;115.72;103.72;;;4.70;98.60;;;;;;5020439;28;20050;-77
2022/01/31 02:57:13;;;;;;;115.25;103.55;;;4.70;98.80;;;;;;5019897;28;20037;-77
2022/01/31 02:59:40;;;;;;;116.03;104.13;;;4.70;98.70;;;;;;5020366;28;20045;-77
2022/01/31 03:02:08;;;;;;;114.00;101.97;;;4.70;98.70;;;;;;5036794;28;20570;-77
2022/01/31 03:04:35;;;;;;;115.05;103.20;;;4.70;98.80;;;;;;5036686;28;20577;-77
2022/01/31 03:07:08;;;;;;;117.13;104.97;;;4.70;98.80;;;;;;5036471;28;20048;-77
2022/01/31 03:09:37;;;;;;;114.90;102.90;;;4.70;98.90;;;;;;5020494;28;20136;-77
2022/01/31 03:12:09;;;;;;;116.00;104.10;;;4.70;99.00;;;;;;5036526;28;20093;-78
2022/01/31 03:14:43;;;;;;;115.88;103.82;;;4.70;99.10;;;;;;5019793;28;20053;-77
2022/01/31 03:17:26;;;;;;;113.63;101.80;;;4.60;99.10;;;;;;5019986;28;20147;-77
2022/01/31 03:19:54;;;;;;;116.40;104.40;;;4.60;99.30;;;;;;5036606;28;20103;-77
2022/01/31 03:22:23;;;;;;;113.97;102.30;;;4.70;99.40;;;;;;5036471;28;20041;-77
2022/01/31 03:24:52;;;;;;;117.53;105.28;;;4.70;99.60;;;;;;5036215;28;20049;-78
2022/01/31 03:27:19;;;;;;;117.35;105.10;;;4.80;99.60;;;;;;5019730;28;20534;-77
2022/01/31 03:29:46;;;;;;;115.28;103.60;;;4.80;99.70;;;;;;5019831;28;20103;-78
2022/01/31 03:32:13;;;;;;;114.82;102.57;;;4.80;99.80;;;;;;5018686;28;20076;-77
2022/01/31 03:34:40;;;;;;;116.50;103.95;;;4.90;99.80;;;;;;5019663;28;20100;-77
2022/01/31 03:37:07;;;;;;;115.65;103.22;;;5.00;99.90;;;;;;5035998;28;20061;-77
2022/01/31 03:39:35;;;;;;;116.47;103.93;;;5.10;99.90;;;;;;5036210;28;20050;-78
2022/01/31 03:42:04;;;;;;;115.05;102.93;;;5.10;99.90;;;;;;5019611;28;20053;-77
2022/01/31 03:44:30;;;;;;;117.70;105.22;;;5.20;99.90;;;;;;5036252;28;20061;-78
2022/01/31 03:46:58;;;;;;;116.53;103.75;;;5.30;99.90;;;;;;5019378;28;20124;-79
2022/01/31 03:49:26;;;;;;;115.72;102.63;;;5.40;99.90;;;;;;5019779;28;20057;-78
2022/01/31 03:51:57;;;;;;;115.32;101.40;;;5.50;99.90;;;;;;5036265;28;20046;-78
2022/01/31 03:54:37;;;;;;;119.80;101.05;;;5.60;99.90;;;;;;5019631;28;20531;-78
2022/01/31 03:57:06;;;;;;;114.53;100.20;;;5.70;99.90;;;;;;5019584;28;20049;-78
2022/01/31 03:59:48;;;;;;;124.78;100.90;;;5.80;99.90;;;;;;5019391;28;20514;-78
2022/01/31 04:02:16;;;;;;;121.10;100.65;;;5.90;99.90;;;;;;5035917;28;20137;-78
2022/01/31 04:04:43;;;;;;;112.85;100.22;;;5.90;99.90;;;;;;5052180;28;20049;-78
2022/01/31 04:07:10;;;;;;;124.15;101.60;;;6.00;99.90;;;;;;5035871;28;20050;-78
2022/01/31 04:09:37;;;;;;;121.43;99.90;;;6.10;99.90;;;;;;5052410;28;20061;-78
2022/01/31 04:12:06;;;;;;;117.28;99.55;;;6.10;99.90;;;;;;5052193;28;20045;-78
2022/01/31 04:14:33;;;;;;;118.43;100.85;;;6.20;99.90;;;;;;5052244;28;20054;-79
2022/01/31 04:17:00;;;;;;;121.40;100.80;;;6.20;99.80;;;;;;5052470;28;20072;-78
2022/01/31 04:23:37;;;;;;;122.68;102.72;;;6.30;99.50;;;;;;5052050;28;20522;-78
2022/01/31 04:26:09;;;;;;;115.03;101.07;;;6.40;99.40;;;;;;5053707;28;20076;-78
2022/01/31 04:28:43;;;;;;;116.82;101.15;;;6.50;99.30;;;;;;5051722;28;20929;-78
2022/01/31 04:31:24;;;;;;;112.22;99.40;;;6.50;99.20;;;;;;5052302;28;20053;-78
2022/01/31 04:33:52;;;;;;;117.60;103.43;;;6.50;99.00;;;;;;5052273;28;20038;-78
2022/01/31 04:36:20;;;;;;;112.70;100.53;;;6.60;98.80;;;;;;5035617;28;20053;-78
2022/01/31 04:38:48;;;;;;;115.47;98.70;;;6.60;98.70;;;;;;5035384;28;20049;-78
2022/01/31 04:41:16;;;;;;;114.78;102.15;;;6.60;98.60;;;;;;5052242;28;20510;-78
2022/01/31 04:43:47;;;;;;;115.38;102.50;;;6.60;98.60;;;;;;5054081;28;20053;-78
2022/01/31 04:46:14;;;;;;;114.88;102.57;;;6.70;98.40;;;;;;5055394;28;20932;-78
2022/01/31 04:48:43;;;;;;;114.50;100.50;;;6.60;98.30;;;;;;5038584;28;20049;-78
2022/01/31 04:51:10;;;;;;;118.00;99.75;;;6.60;98.30;;;;;;5056286;28;20068;-78
2022/01/31 04:53:37;;;;;;;116.78;100.93;;;6.60;98.30;;;;;;5038704;28;20054;-78
2022/01/31 04:56:05;;;;;;;117.15;103.22;;;6.60;98.40;;;;;;5055234;28;20049;-78
2022/01/31 04:58:33;;;;;;;114.30;101.70;;;6.60;98.30;;;;;;5056805;28;20050;-78
2022/01/31 05:01:01;;;;;;;120.05;104.25;;;6.50;98.30;;;;;;5055462;28;20084;-78
2022/01/31 05:03:29;;;;;;;116.85;102.47;;;6.60;98.30;;;;;;5055188;28;20049;-78
2022/01/31 05:05:56;;;;;;;119.25;102.38;;;6.60;98.30;;;;;;5056375;28;20111;-78
2022/01/31 05:08:26;;;;;;;114.03;100.82;;;6.60;98.40;;;;;;5055015;28;20057;-78
2022/01/31 05:10:53;;;;;;;116.15;101.00;;;6.60;98.30;;;;;;5055201;28;20089;-79
2022/01/31 05:13:20;;;;;;;114.28;101.85;;;6.50;98.30;;;;;;5038628;28;20506;-78
2022/01/31 05:15:47;;;;;;;115.20;100.97;;;6.50;98.40;;;;;;5038666;28;20099;-78
2022/01/31 05:18:16;;;;;;;112.00;99.82;;;6.60;98.30;;;;;;5054856;28;20116;-78
2022/01/31 05:20:43;;;;;;;118.03;101.82;;;6.60;98.20;;;;;;5038752;28;20095;-78
2022/01/31 05:23:10;;;;;;;124.25;101.68;;;6.60;98.20;;;;;;5054910;28;20049;-78
2022/01/31 05:25:38;;;;;;;113.18;100.57;;;6.60;98.20;;;;;;5054869;28;20046;-78
2022/01/31 05:28:06;;;;;;;115.32;101.88;;;6.50;98.20;;;;;;5054763;28;20054;-78
2022/01/31 05:30:33;;;;;;;114.35;102.10;;;6.50;98.20;;;;;;5055028;28;20061;-78
2022/01/31 05:33:00;;;;;;;108.28;97.57;;;6.50;98.10;;;;;;5054639;28;20104;-78
2022/01/31 05:35:29;;;;;;;107.40;96.80;;;6.50;97.60;;;;;;5054831;28;20056;-78
2022/01/31 05:37:56;;;;;;;109.18;98.05;;;6.40;97.40;;;;;;5038039;28;20057;-79
2022/01/31 05:40:23;;;;;;;109.68;98.68;;;6.20;97.50;;;;;;5054791;28;20046;-78
2022/01/31 05:42:50;;;;;;;109.45;98.30;;;6.20;97.60;;;;;;5054714;28;20052;-78
2022/01/31 05:45:17;;;;;;;107.40;96.80;;;6.10;97.70;;;;;;5054731;28;20054;-78
2022/01/31 05:47:44;;;;;;;108.55;97.68;;;6.00;97.80;;;;;;5037783;28;20052;-78
2022/01/31 05:50:11;;;;;;;109.50;97.93;;;6.00;97.90;;;;;;5054766;28;20053;-79
2022/01/31 05:52:40;;;;;;;109.85;98.47;;;6.00;98.00;;;;;;5054409;28;20046;-79
2022/01/31 05:55:07;;;;;;;110.93;99.78;;;5.90;98.10;;;;;;5053496;28;20049;-78
2022/01/31 05:57:35;;;;;;;110.03;99.13;;;6.00;98.10;;;;;;5054441;28;20054;-79
2022/01/31 06:00:02;;;;;;;109.70;98.55;;;5.90;98.00;;;;;;5054431;28;20050;-79
2022/01/31 06:02:29;;;;;;;108.78;97.88;;;5.80;98.30;;;;;;5054335;28;20049;-79
2022/01/31 06:04:59;;;;;;;110.50;99.38;;;5.80;98.30;;;;;;5037726;28;20136;-78
2022/01/31 06:07:26;;;;;;;109.93;98.90;;;5.80;98.40;;;;;;5037559;28;20054;-78
2022/01/31 06:09:55;;;;;;;111.90;100.55;;;5.80;98.60;;;;;;5040392;28;20050;-79
2022/01/31 06:12:22;;;;;;;110.60;99.45;;;5.80;98.80;;;;;;5035053;28;20141;-79
2022/01/31 06:14:49;;;;;;;112.35;100.78;;;5.80;98.90;;;;;;5017378;28;20152;-78
2022/01/31 06:17:17;;;;;;;111.15;99.57;;;5.80;98.90;;;;;;5016898;28;20137;-79
2022/01/31 06:19:44;;;;;;;112.00;100.35;;;5.80;99.10;;;;;;5016869;28;20547;-78
2022/01/31 06:22:10;;;;;;;113.63;101.78;;;5.80;99.20;;;;;;5016565;28;20061;-79
2022/01/31 06:24:37;;;;;;;113.22;101.07;;;5.80;99.30;;;;;;5016602;28;20539;-79
2022/01/31 06:27:23;;;;;;;112.65;100.43;;;5.80;99.30;;;;;;4999596;28;20046;-78
2022/01/31 06:29:50;;;;;;;114.60;102.40;;;5.80;99.30;;;;;;5000430;28;20511;-78
2022/01/31 06:32:26;;;;;;;113.57;101.43;;;5.80;99.40;;;;;;5000510;28;20059;-79
2022/01/31 06:34:55;;;;;;;112.47;100.55;;;5.80;99.50;;;;;;5016694;28;20054;-79
2022/01/31 06:37:22;;;;;;;113.78;101.38;;;5.80;99.50;;;;;;4999494;28;20103;-79
2022/01/31 06:39:50;;;;;;;115.70;101.50;;;5.80;99.50;;;;;;5016516;28;20062;-79
2022/01/31 06:42:17;;;;;;;;;;;5.80;99.60;;;;;;5000401;28;20054;-79
2022/01/31 06:44:46;;;;;;;113.75;101.35;;;5.80;99.60;;;;;;5016608;28;19931;-78
2022/01/31 06:47:12;;;;;;;112.93;100.63;;;5.80;99.60;;;;;;5016182;28;20136;-79
2022/01/31 06:49:40;;;;;;;113.53;101.45;;;5.80;99.70;;;;;;5016404;28;20500;-78
2022/01/31 06:52:07;;;;;;;113.80;101.38;;;5.90;99.70;;;;;;5016509;28;20116;-78
2022/01/31 06:54:35;;;;;;;114.30;100.40;;;5.90;99.80;;;;;;5016565;28;20084;-79
2022/01/31 06:57:04;;;;;;;114.90;102.50;;;6.00;99.90;;;;;;4999620;28;20053;-79
2022/01/31 06:59:32;;;;;;;113.88;101.97;;;6.00;99.80;;;;;;5032866;28;20791;-79
2022/01/31 07:02:00;;;;;;;110.43;98.28;;;6.00;99.90;;;;;;5016152;28;20038;-79
2022/01/31 07:04:27;;;;;;;110.80;98.93;;;6.00;99.80;;;;;;5015723;28;20056;-79
2022/01/31 07:06:54;;;;;;;112.28;100.38;;;6.00;99.90;;;;;;5016434;28;20054;-79
2022/01/31 07:09:22;;;;;;;111.43;100.00;;;6.00;99.80;;;;;;5016051;28;20121;-79
2022/01/31 07:11:51;;;;;;;114.07;102.13;;;6.00;99.60;;;;;;5015703;28;20046;-79
2022/01/31 07:14:30;;;;;;;111.15;99.72;;;6.00;99.50;;;;;;5015850;28;20061;-79
2022/01/31 07:17:05;;;;;;;111.18;99.88;;;6.00;99.50;;;;;;5016013;28;20093;-79
2022/01/31 07:19:34;;;;;;;111.50;100.05;;;6.00;99.30;;;;;;5032347;28;20060;-79
2022/01/31 07:22:04;;;;;;;110.95;99.22;;;6.00;99.40;;;;;;5015809;28;20062;-79
2022/01/31 07:24:44;;;;;;;110.88;99.80;;;6.00;99.40;;;;;;5016003;28;20058;-78
2022/01/31 07:27:12;;;;;;;110.75;99.65;;;5.90;99.40;;;;;;5015142;28;20045;-78
2022/01/31 07:29:40;;;;;;;112.93;101.30;;;6.00;99.50;;;;;;5015711;28;20088;-78
2022/01/31 07:32:10;;;;;;;112.28;100.72;;;6.00;99.40;;;;;;5015528;28;20050;-78
2022/01/31 07:34:39;;;;;;;112.72;100.85;;;5.90;99.50;;;;;;5015228;28;20053;-78
2022/01/31 07:37:06;;;;;;;114.13;102.32;;;5.90;99.50;;;;;;5015834;28;20382;-79
2022/01/31 07:39:33;;;;;;;112.15;100.78;;;5.90;99.60;;;;;;5015432;28;20049;-79
2022/01/31 07:42:00;;;;;;;113.72;101.45;;;5.80;99.60;;;;;;5015136;28;20084;-79
2022/01/31 07:44:27;;;;;;;113.82;101.85;;;5.90;99.80;;;;;;5015633;28;20053;-79
2022/01/31 07:46:54;;;;;;;112.53;100.88;;;5.80;99.70;;;;;;5015372;28;20129;-79
2022/01/31 07:49:23;;;;;;;112.10;100.32;;;5.80;99.70;;;;;;5016000;28;20057;-79
2022/01/31 07:51:50;;;;;;;111.93;100.57;;;5.80;99.80;;;;;;5015899;28;20057;-78
2022/01/31 07:54:21;;;;;;;113.65;101.63;;;5.90;99.80;;;;;;5016136;28;20081;-79
2022/01/31 07:56:48;;;;;;;114.80;102.75;;;5.90;99.90;;;;;;5016002;28;20050;-79
2022/01/31 07:59:15;;;;;;;113.53;101.20;;;5.90;99.90;;;;;;5015119;28;20058;-77
2022/01/31 08:01:42;;;;;;;112.55;100.63;;;5.90;99.90;;;;;;5027719;28;20045;-81
2022/01/31 08:04:10;;;;;;;112.53;100.60;;;5.90;99.90;;;;;;5051674;28;20711;-81
2022/01/31 08:06:38;;;;;;;113.60;101.68;;;5.90;99.90;;;;;;5017892;28;20045;-81
2022/01/31 08:09:05;;;;;;;112.28;100.85;;;5.90;99.80;;;;;;5030008;28;20149;-81
2022/01/31 08:11:34;;;;;;;113.25;101.65;;;6.00;99.90;;;;;;5004388;28;20760;-81
2022/01/31 08:14:07;;;;;;;114.85;102.68;;;6.00;99.90;;;;;;5014537;28;20136;-81
2022/01/31 08:16:34;;;;;;;112.78;101.05;;;6.00;99.90;;;;;;4999336;28;20054;-82
2022/01/31 08:19:02;;;;;;;;;;;6.10;99.90;;;;;;5002927;28;20059;-87
2022/01/31 08:21:29;;;;;;;111.35;99.55;;;6.10;99.90;;;;;;5050462;28;20453;-86
2022/01/31 08:24:29;;;;;;;114.43;102.38;;;6.10;99.80;;;;;;5001257;28;20053;-86
2022/01/31 08:26:56;;;;;;;116.35;103.88;;;6.10;99.80;;;;;;5040895;28;20050;-82
2022/01/31 08:29:29;;;;;;;112.82;100.65;;;6.10;99.90;;;;;;5018832;28;20129;-80
2022/01/31 08:31:57;;;;;;;113.70;101.45;;;6.20;99.80;;;;;;5015368;28;20057;-83
2022/01/31 08:35:47;;;;;;;115.70;103.35;;;6.20;99.90;;;;;;5015424;28;20085;-82
2022/01/31 08:37:14;;;;;;;115.50;103.43;;;6.20;99.90;;;;;;5014847;28;20057;-83
2022/01/31 08:39:43;;;;;;;115.07;102.75;;;6.30;99.80;;;;;;5032168;28;20487;-82
2022/01/31 08:42:10;;;;;;;114.78;102.43;;;6.30;99.90;;;;;;5032308;28;20145;-86
2022/01/31 08:44:37;;;;;;;;;;;6.30;99.80;;;;;;5012607;28;20057;-82
2022/01/31 08:47:05;;;;;;;114.78;102.05;;;6.30;99.80;;;;;;5028910;28;20398;-82
2022/01/31 08:49:35;;;;;;;113.95;101.70;;;6.40;99.80;;;;;;5018051;28;20140;-81
2022/01/31 08:52:04;;;;;;;120.00;104.72;;;6.40;99.90;;;;;;5015092;28;20061;-82
2022/01/31 08:54:31;;;;;;;115.57;102.43;;;6.40;99.80;;;;;;5014117;28;20129;-81
2022/01/31 08:56:59;;;;;;;115.03;102.40;;;6.40;99.80;;;;;;5020570;28;20053;-84
2022/01/31 08:59:28;;;;;;;115.32;103.05;;;6.50;99.80;;;;;;5022348;28;20152;-81
2022/01/31 09:02:05;;;;;;;113.18;101.28;;;6.60;99.90;;;;;;4998002;28;20057;-84
2022/01/31 09:04:41;;;;;;;113.22;101.32;;;6.50;99.80;;;;;;5014520;28;20046;-78
2022/01/31 09:07:09;;;;;;;113.32;101.35;;;6.60;99.80;;;;;;5014559;28;20062;-79
2022/01/31 09:09:36;;;;;;;;;;;6.60;99.70;;;;;;5015653;28;20052;-79
2022/01/31 09:12:07;;;;;;;112.82;101.22;;;6.60;99.60;;;;;;5014690;28;19929;-79
2022/01/31 09:14:34;;;;;;;110.72;99.00;;;6.60;99.60;;;;;;5014746;28;20061;-79
2022/01/31 09:17:01;;;;;;;112.13;100.20;;;6.60;99.70;;;;;;5014794;28;20108;-84
2022/01/31 09:19:29;;;;;;;109.85;98.63;;;6.70;99.70;;;;;;5031583;28;20587;-83
2022/01/31 09:21:56;;;;;;;111.72;100.13;;;6.70;99.60;;;;;;5030896;28;20048;-82
2022/01/31 09:24:22;;;;;;;110.90;99.40;;;6.80;99.70;;;;;;4998806;28;20793;-82
2022/01/31 09:26:50;;;;;;;113.07;101.88;;;6.80;99.70;;;;;;5015078;28;20070;-82
2022/01/31 09:29:18;;;;;;;112.10;100.63;;;6.80;99.60;;;;;;5015294;28;20058;-85
2022/01/31 09:31:45;;;;;;;112.47;101.20;;;6.80;99.60;;;;;;5002303;28;20065;-80
2022/01/31 09:34:13;;;;;;;113.15;101.97;;;6.80;99.60;;;;;;5018335;28;20089;-83
2022/01/31 09:36:40;;;;;;;112.53;101.07;;;6.80;99.70;;;;;;5035103;28;20053;-82
2022/01/31 09:39:08;;;;;;;111.60;100.80;;;6.90;99.70;;;;;;5018214;28;20081;-83
2022/01/31 09:41:38;;;;;;;114.03;102.45;;;6.90;99.60;;;;;;5002308;28;20042;-84
2022/01/31 09:44:21;;;;;;;113.95;102.43;;;6.90;99.70;;;;;;5002118;28;20056;-85
2022/01/31 09:47:05;;;;;;;113.82;102.65;;;7.00;99.60;;;;;;5002914;28;20050;-84
2022/01/31 09:49:32;;;;;;;113.32;101.65;;;7.00;99.50;;;;;;5019450;28;20049;-84
2022/01/31 09:51:59;;;;;;;113.43;101.53;;;7.00;99.50;;;;;;5003258;28;20539;-85
2022/01/31 09:54:28;;;;;;;112.95;101.38;;;7.00;99.60;;;;;;5002593;28;20523;-83
2022/01/31 09:56:55;;;;;;;111.90;100.20;;;7.10;99.50;;;;;;5017834;28;20473;-81
2022/01/31 09:59:22;;;;;;;;;;;7.10;99.50;;;;;;5018368;28;20484;-81
2022/01/31 10:01:54;;;;;;;112.25;100.78;;;7.00;99.40;;;;;;5034921;28;19936;-82
2022/01/31 10:04:23;;;;;;;115.13;103.50;;;7.10;99.50;;;;;;5017696;28;20499;-81
2022/01/31 10:06:52;;;;;;;114.43;102.63;;;7.10;99.40;;;;;;5017517;28;20114;-82
2022/01/31 10:09:22;;;;;;;113.22;101.72;;;7.10;99.40;;;;;;5017835;28;20049;-84
2022/01/31 10:11:51;;;;;;;114.07;102.80;;;7.20;99.50;;;;;;5018277;28;20145;-82
2022/01/31 10:17:12;;;;;;;113.85;102.30;;;7.20;99.40;;;;;;5001146;28;20531;-81
2022/01/31 10:19:44;;;;;;;113.43;102.32;;;7.20;99.40;;;;;;5000874;28;20186;-83
2022/01/31 10:22:15;;;;;;;113.63;102.47;;;7.20;99.40;;;;;;5018354;28;20056;-88
2022/01/31 10:24:47;;;;;;;113.28;102.18;;;7.20;99.40;;;;;;5001191;28;20046;-83
2022/01/31 10:27:17;;;;;;;114.00;102.60;;;7.30;99.40;;;;;;5017340;28;20120;-81
2022/01/31 10:29:46;;;;;;;113.00;102.18;;;7.30;99.30;;;;;;5017535;28;20115;-85
2022/01/31 10:32:22;;;;;;;113.47;102.20;;;7.30;99.30;;;;;;5017321;28;20053;-80
2022/01/31 10:34:54;;;;;;;112.00;101.18;;;7.30;99.20;;;;;;5034171;28;20582;-82
2022/01/31 10:37:25;;;;;;;113.45;102.38;;;7.30;99.20;;;;;;5017552;28;20050;-82
2022/01/31 10:45:44;;;;;;;114.65;103.43;;;7.40;99.00;;;;;;5017282;28;20555;-81
2022/01/31 10:54:00;;;;;;;111.82;100.68;;;7.40;98.70;;;;;;5016993;28;20053;-80
2022/01/31 10:56:37;;;;;;;112.82;101.32;;;7.50;98.60;;;;;;5016290;28;20065;-79
2022/01/31 10:59:11;;;;;;;113.90;102.55;;;7.40;98.70;;;;;;5016335;28;20571;-79
2022/01/31 11:01:40;;;;;;;115.03;103.57;;;7.50;98.50;;;;;;5016209;28;20105;-80
2022/01/31 11:04:11;;;;;;;114.18;102.65;;;7.50;98.40;;;;;;4999096;28;20042;-79
2022/01/31 11:06:40;;;;;;;112.85;101.00;;;7.50;98.50;;;;;;5015798;28;20444;-80
2022/01/31 11:09:10;;;;;;;112.35;100.75;;;7.50;98.60;;;;;;5021716;28;20104;-81
2022/01/31 11:11:39;;;;;;;114.70;103.07;;;7.60;98.90;;;;;;5034532;28;20499;-81
2022/01/31 11:14:08;;;;;;;113.10;101.38;;;7.60;98.70;;;;;;5025479;28;20193;-85
2022/01/31 11:16:37;;;;;;;109.90;98.38;;;7.60;98.70;;;;;;5019034;28;20081;-85
2022/01/31 11:19:22;;;;;;;110.40;98.85;;;7.60;98.70;;;;;;5031408;28;20080;-83
2022/01/31 11:21:58;;;;;;;112.95;100.95;;;7.70;98.60;;;;;;4941973;28;20536;-79
2022/01/31 11:24:30;;;;;;;110.57;99.10;;;7.70;98.70;;;;;;5030660;28;20064;-80
2022/01/31 11:27:04;;;;;;;111.25;99.60;;;7.70;98.50;;;;;;5017731;28;20149;-81
2022/01/31 11:29:35;;;;;;;113.50;101.90;;;7.80;98.50;;;;;;5030478;28;20133;-80
2022/01/31 11:32:04;;;;;;;111.40;100.18;;;7.80;98.60;;;;;;5032436;28;20053;-82
2022/01/31 11:34:32;;;;;;;112.88;101.22;;;7.90;98.60;;;;;;5015979;28;20054;-81
2022/01/31 11:37:02;;;;;;;111.25;99.35;;;8.00;98.70;;;;;;5015790;28;20820;-81
2022/01/31 11:39:29;;;;;;;110.88;99.28;;;8.00;98.70;;;;;;4998923;28;20529;-81
2022/01/31 11:41:58;;;;;;;;;;;8.10;98.70;;;;;;5041158;28;20057;-81
2022/01/31 11:44:30;;;;;;;112.13;100.45;;;8.10;98.50;;;;;;5016665;28;19929;-82
2022/01/31 11:47:02;;;;;;;113.88;101.78;;;8.20;98.60;;;;;;4998274;28;20475;-84
2022/01/31 11:49:44;;;;;;;114.88;102.70;;;8.20;98.50;;;;;;5000035;28;20538;-81
2022/01/31 11:52:13;;;;;;;113.47;101.95;;;8.20;98.40;;;;;;5032242;28;20050;-81
2022/01/31 11:54:49;;;;;;;117.00;105.25;;;8.30;98.40;;;;;;5015898;28;20146;-82
2022/01/31 11:57:18;;;;;;;111.72;100.07;;;8.30;98.30;;;;;;4999754;28;20177;-81
2022/01/31 11:59:49;;;;;;;112.63;100.72;;;8.30;98.30;;;;;;5032511;28;20880;-81
2022/01/31 12:02:16;;;;;;;111.90;100.35;;;8.40;98.30;;;;;;5016127;28;20542;-80
2022/01/31 12:04:45;;;;;;;111.00;99.63;;;8.40;98.30;;;;;;5015909;28;20050;-80
2022/01/31 12:07:45;;;;;;;113.22;101.70;;;8.50;98.40;;;;;;5015419;28;20061;-80
2022/01/31 12:10:26;;;;;;;112.40;101.15;;;8.50;98.30;;;;;;4953027;28;20087;-80
2022/01/31 12:12:57;;;;;;;113.90;102.30;;;8.50;98.20;;;;;;5012497;28;20534;-82
2022/01/31 12:16:00;;;;;;;111.70;100.35;;;8.60;98.20;;;;;;5024626;28;20049;-81
2022/01/31 12:24:29;;;;;;;110.50;99.18;;;8.70;98.20;;;;;;5000670;28;20578;-85
2022/01/31 12:27:06;;;;;;;109.68;98.47;;;8.70;98.10;;;;;;4999875;28;20104;-85
2022/01/31 12:29:35;;;;;;;111.00;99.65;;;8.70;98.00;;;;;;5007585;28;20081;-83
2022/01/31 12:32:34;;;;;;;109.25;97.93;;;8.80;98.10;;;;;;5037398;28;20069;-89
2022/01/31 12:35:06;;;;;;;108.15;97.15;;;8.80;97.90;;;;;;5024576;28;20958;-87
2022/01/31 12:37:35;;;;;;;109.05;98.20;;;8.80;97.90;;;;;;5010816;28;20046;-85
2022/01/31 12:40:13;;;;;;;109.57;98.53;;;8.80;97.90;;;;;;5036717;28;20196;-81
2022/01/31 12:46:18;;;;;;;109.72;98.70;;;8.90;97.50;;;;;;4998819;28;20147;-90
2022/01/31 12:49:13;;;;;;;109.93;98.88;;;8.90;97.70;;;;;;4995724;28;20043;-82
2022/01/31 12:52:06;;;;;;;111.50;100.30;;;8.90;97.70;;;;;;5024574;28;20132;-90
2022/01/31 12:54:52;;;;;;;112.00;100.70;;;8.90;97.70;;;;;;5005683;28;20058;-88
2022/01/31 12:57:20;;;;;;;109.95;98.78;;;8.90;97.50;;;;;;5024933;28;20054;-80
2022/01/31 12:59:49;;;;;;;112.18;101.35;;;8.90;97.60;;;;;;5019600;28;20073;-81
2022/01/31 13:02:17;;;;;;;112.53;101.03;;;8.90;97.60;;;;;;5029482;28;20065;-82
2022/01/31 13:04:48;;;;;;;110.85;99.88;;;9.00;97.60;;;;;;5016581;28;20065;-83
2022/01/31 13:07:18;;;;;;;116.05;104.63;;;9.00;97.60;;;;;;5034193;28;20566;-82